Weather at Offshore Systems-Kenai Heliport

Public forecast

Using degrees Fahrenheit for public forecast. Weather courtesy of forecast.io.

Closest aviation weather report (METAR) to Offshore Systems-Kenai Heliport

Closest report is Kenai Municipal Airport, 10.1 nm (18.8 km) S. Retrieved 2021/06/23 01:53 UTC (47 minutes ago):

PAEN 230153Z 33008KT 10SM BKN045 OVC070 17/07 A2987

Closest aviation forecast (TAF) to Offshore Systems-Kenai Heliport

Closest forecast is Kenai Municipal Airport, 10.1 nm (18.8 km) S. Retrieved 2021-06-23 00:36 UTC (2 hours ago):

TAF PAEN 222335Z 2300/2324 VRB06KT P6SM SCT070 BKN120 FM231600 03011KT P6SM SCT120 BKN200